Terminal Aerodrome Forecast
Issued by NWS

Home | Current Version | Previous Version | Text Only | Print | Product List | Glossary On
Versions: 1 2 3 4 5 6 7 8 9 10 11 12 13
000
FTUS43 KDVN 181700
TAFCID
TAF
KCID 181724Z 1818/1918 11012KT P6SM OVC200 PROB30 1903/1906 -SHRA
      BKN050
     FM190600 10006KT P6SM OVC050
     FM191200 11006KT P6SM VCSH OVC050
      TEMPO 1914/1918 4SM SHRA BKN025=

USA.gov is the U.S. government's official web portal to all federal, state and local government web resources and services.